Bunola, PA (15020)

10:47 PM EST on February 11, 2016 (GMT -0500)
Forward Township | | Change Station
CLOSE
Current Station
Personal Weather Station
Location: Monongahela, PA
Elevation: 1171 ft
Nearby Weather Stations

Elev 1171 ft 40.24 °N, 79.91 °W | Updated 18 seconds ago

Clear
Clear
12.2 °F
Feels Like 12 °F
N
1.1
Wind Variable Wind from SW
Gusts 2.5 mph

Today
High -- | Low -- °F
--% Chance of Precip.
Yesterday
High -- | Low -- °F
Precip. -- in
Pressure 30.32 in
Visibility 10.0 miles
Clouds Clear
Windchill 12 °F
Dew Point -7 °F
Humidity 41%
Rainfall 0.00 in
Snow Depth Not available.
7:18 AM 5:50 PM
Waxing Crescent, 17% visible
METAR KAGC 120253Z 29006KT 10SM CLR M10/M18 A3024 RMK AO2 SLP268 T11001183 51007
Pressure 30.32 in
Visibility 10.0 miles
Clouds Clear
Windchill 12 °F
Dew Point -7 °F
Humidity 41%
Rainfall 0.00 in
Snow Depth Not available.
7:18 AM 5:50 PM
Waxing Crescent, 17% visible
METAR KAGC 120253Z 29006KT 10SM CLR M10/M18 A3024 RMK AO2 SLP268 T11001183 51007

10-Day Weather Forecast

Almanac

Astronomy

Feb. 11, 2016 Rise Set
Actual Time
Civil Twilight
Nautical Twilight
Astronomical Twilight
Moon
Length of Visible Light
Length of Day
Tomorrow will be .
, % of the Moon is Illuminated

Today's Extremes

State Highs State Lows

Community

WunderPhotos

Upload Photos

1,892,254 photos uploaded!

WunderBlog® & News

Nearby

Air Quality

  Air Quality AQ Index Pollutant
Not available.

Snow Depth

Station Depth Elevation

Earthquake Activity

City Distance Mag. Time & Date
Minimum magnitude displayed is 2.5.

Coastal Water Temperatures

Place Temperature

Stations

Nearby Weather Stations

Station Location Temp. Windchill Dew Point Humidity Wind Precip. Elev Updated Type
                   

Watches & Warnings

There are currently no watches in effect.